Absecon, New Jersey
Current Conditions -  °F | °C
As of 6:54 AM on Friday 24 Oct 2014 (Local Time) from KACY Reporting Station
Clear Clear  
Wind Chill:   Ceiling: Unl
Heat Index:   Visibility: 10mi
Dew Point:   Wind: 7mph
Humidity: 90%   Direction: 250°WSW
Pressure: 29.83"   Gusts: NA
Location:  39.43°N, 74.51°W
Report Text: KACY 241054Z 25006KT 10SM CLR 08/07 A2983 RMK AO2 SLP100 T00830067
Loading
Personal Weather Stations






























Interactive Weather Map
Tropical Storm Tracking
New forecast layout! Learn more

10-Day Weather Forecast

Advertisements
Track Severe Weather on mobile